Data for 01/10/2008

Time Sea-Level Adjusted Pressure Absolute Pressure Temperature Relative Humidity Dew Point   
(mb) (inHg) (mb) (inHg) (C) (F) (%) (C) (F)
00:05 1014 29.94 844 24.92 -3.7 25.3 69 -8.7 16.4
00:10 1014 29.94 843 24.89 -4 24.7 69 -8.9 16
00:15 1014 29.94 843 24.89 -4.2 24.5 70 -8.9 16
00:20 1014 29.94 843 24.89 -4.2 24.5 70 -8.9 15.9
00:25 1014 29.94 843 24.89 -4.1 24.6 69 -9 15.8
00:30 1014 29.94 843 24.89 -4.3 24.3 70 -9 15.9
00:35 1014 29.94 843 24.89 -4.4 24.1 70 -9.1 15.6
00:40 1014 29.94 843 24.89 -4.3 24.3 69 -9.1 15.7
00:45 1014 29.94 843 24.89 -4 24.7 68 -9.1 15.7
00:50 1014 29.94 843 24.89 -4 24.8 68 -9.1 15.7
00:55 1014 29.94 843 24.89 -4 24.8 69 -8.9 16.1
01:00 1014 29.94 843 24.89 -4.1 24.7 69 -8.9 16
01:05 1014 29.94 843 24.89 -4.1 24.7 69 -8.9 15.9
01:10 1014 29.94 843 24.89 -4.3 24.3 70 -9 15.8
01:15 1014 29.94 843 24.89 -4.3 24.2 71 -8.8 16.2
01:20 1014 29.94 843 24.89 -4.5 23.9 72 -8.8 16.2
01:25 1014 29.94 843 24.89 -4.5 23.8 71 -9 15.8
01:30 1014 29.94 843 24.89 -4.6 23.7 72 -9 15.8
01:35 1014 29.94 843 24.89 -4.8 23.4 71 -9.2 15.5
01:40 1013 29.91 843 24.89 -4.8 23.3 71 -9.2 15.4
01:45 1013 29.91 843 24.89 -4.8 23.3 72 -9.1 15.6
01:50 1013 29.91 843 24.89 -5 23.1 73 -9.2 15.5
01:55 1013 29.91 843 24.89 -5.1 22.9 72 -9.3 15.2
02:00 1013 29.91 842 24.86 -5.2 22.7 73 -9.3 15.3
02:05 1013 29.91 842 24.86 -5.3 22.5 74 -9.1 15.6
02:10 1013 29.91 842 24.86 -5.5 22.1 75 -9.3 15.3
02:15 1013 29.91 842 24.86 -5.5 22.1 73 -9.6 14.7
02:20 1013 29.91 842 24.86 -5.2 22.7 72 -9.5 14.9
02:25 1013 29.91 842 24.86 -5.2 22.6 73 -9.4 15.2
02:30 1013 29.91 842 24.86 -5.6 21.9 73 -9.6 14.7
02:35 1013 29.91 842 24.86 -5.6 22 73 -9.7 14.5
02:40 1013 29.91 842 24.86 -5.7 21.8 73 -9.8 14.4
02:45 1013 29.91 842 24.86 -5.7 21.7 72 -10.1 13.8
02:50 1013 29.91 842 24.86 -5.4 22.3 70 -9.9 14.1
02:55 1013 29.91 842 24.86 -5.5 22.1 72 -9.7 14.5
03:00 1013 29.91 842 24.86 -6.3 20.6 76 -10 14
03:05 1013 29.91 842 24.86 -6.6 20 76 -10.2 13.7
03:10 1013 29.91 842 24.86 -6.8 19.7 77 -10.2 13.6
03:15 1013 29.91 842 24.86 -6.9 19.5 78 -10.2 13.6
03:20 1013 29.91 842 24.86 -6.9 19.6 77 -10.3 13.4
03:25 1013 29.91 842 24.86 -7 19.4 77 -10.4 13.3
03:30 1012 29.88 842 24.86 -7.3 18.8 78 -10.6 13
03:35 1012 29.88 842 24.86 -7.6 18.3 77 -10.9 12.4
03:40 1012 29.88 842 24.86 -7.2 19.1 76 -10.8 12.6
03:45 1012 29.88 842 24.86 -6.9 19.5 74 -10.8 12.6
03:50 1012 29.88 842 24.86 -6.9 19.6 75 -10.6 12.9
03:55 1012 29.88 842 24.86 -6.8 19.7 74 -10.7 12.8
04:00 1012 29.88 842 24.86 -7 19.3 75 -10.7 12.7
04:05 1012 29.88 842 24.86 -7.4 18.7 77 -10.7 12.7
04:10 1012 29.88 842 24.86 -7.4 18.7 76 -10.9 12.4
04:15 1012 29.88 842 24.86 -7.4 18.7 76 -10.9 12.3
04:20 1012 29.88 842 24.86 -7.4 18.7 75 -11.1 12
04:25 1012 29.88 842 24.86 -7.1 19.2 75 -10.9 12.4
04:30 1012 29.88 842 24.86 -7.1 19.2 74 -11 12.2
04:35 1012 29.88 841 24.83 -7 19.5 73 -11 12.2
04:40 1012 29.88 841 24.83 -6.7 19.9 72 -11 12.2
04:45 1012 29.88 841 24.83 -6.9 19.6 73 -10.9 12.3
04:50 1012 29.88 841 24.83 -7 19.3 73 -11.1 12.1
04:55 1012 29.88 841 24.83 -7 19.4 73 -11.1 11.9
05:00 1012 29.88 841 24.83 -6.9 19.6 71 -11.2 11.8
05:05 1011 29.85 841 24.83 -7.2 19 74 -11.2 11.9
05:10 1011 29.85 840 24.81 -7.8 18 76 -11.3 11.6
05:15 1011 29.85 840 24.81 -7.8 17.9 75 -11.6 11.2
05:20 1011 29.85 840 24.81 -7.9 17.8 75 -11.6 11.1
05:25 1011 29.85 840 24.81 -8.3 17.1 76 -11.8 10.8
05:30 1011 29.85 840 24.81 -8.6 16.6 77 -11.9 10.6
05:35 1011 29.85 840 24.81 -8.7 16.4 78 -11.9 10.6
05:40 1011 29.85 840 24.81 -8.4 16.9 76 -11.9 10.5
05:45 1011 29.85 840 24.81 -8.2 17.3 75 -11.9 10.5
05:50 1011 29.85 840 24.81 -8.2 17.3 74 -12 10.3
05:55 1011 29.85 840 24.81 -8.2 17.3 74 -12.1 10.3
06:00 1011 29.85 840 24.81 -8.2 17.3 74 -12.1 10.3
06:05 1011 29.85 840 24.81 -8.1 17.5 73 -12.2 10.1
06:10 1011 29.85 840 24.81 -7.8 18 72 -11.9 10.6
06:15 1011 29.85 840 24.81 -7.8 18 72 -11.9 10.5
06:20 1011 29.85 840 24.81 -7.9 17.8 73 -11.9 10.5
06:25 1011 29.85 840 24.81 -8.2 17.3 76 -11.6 11.1
06:30 1011 29.85 840 24.81 -8.5 16.7 78 -11.7 11
06:35 1011 29.85 840 24.81 -8.4 17 77 -11.7 11
06:40 1011 29.85 840 24.81 -8.1 17.4 76 -11.7 11
06:45 1010 29.83 840 24.81 -8.2 17.2 77 -11.6 11.1
06:50 1010 29.83 840 24.81 -8.2 17.3 77 -11.6 11.2
06:55 1010 29.83 840 24.81 -8.2 17.2 77 -11.6 11.1
07:00 1010 29.83 840 24.81 -7.7 18.1 74 -11.7 11
07:05 1011 29.85 840 24.81 -7.3 18.8 74 -11.2 11.8
07:10 1011 29.85 840 24.81 -6.8 19.8 70 -11.3 11.7
07:15 1011 29.85 840 24.81 -6.4 20.5 66 -11.7 10.9
07:20 1011 29.85 840 24.81 -6.4 20.4 68 -11.3 11.6
07:25 1011 29.85 840 24.81 -6.8 19.8 68 -11.8 10.8
07:30 1011 29.85 840 24.81 -6.9 19.6 68 -11.9 10.6
07:35 1011 29.85 840 24.81 -6.9 19.7 69 -11.6 11.1
07:40 1011 29.85 840 24.81 -6.8 19.7 69 -11.6 11.2
07:45 1011 29.85 840 24.81 -6.7 20 68 -11.5 11.2
07:50 1011 29.85 840 24.81 -6.5 20.3 67 -11.6 11.1
07:55 1010 29.83 840 24.81 -6.3 20.6 68 -11.3 11.6
08:00 1010 29.83 840 24.81 -6.1 21 66 -11.4 11.4
08:05 1010 29.83 839 24.78 -6 21.2 68 -10.9 12.3
08:10 1010 29.83 839 24.78 -5.9 21.4 69 -10.7 12.8
08:15 1010 29.83 839 24.78 -5.6 21.9 70 -10.3 13.4
08:20 1010 29.83 839 24.78 -5.7 21.7 70 -10.4 13.3
08:25 1010 29.83 839 24.78 -5.8 21.6 70 -10.4 13.2
08:30 1010 29.83 839 24.78 -5.9 21.3 68 -10.9 12.4
08:35 1010 29.83 839 24.78 -6.2 20.9 69 -11 12.2
08:40 1010 29.83 839 24.78 -5.9 21.4 66 -11.3 11.6
08:45 1010 29.83 839 24.78 -5.5 22 66 -10.9 12.5
08:50 1010 29.83 839 24.78 -5.7 21.8 67 -10.9 12.4
08:55 1010 29.83 839 24.78 -5.9 21.5 69 -10.7 12.8
09:00 1010 29.83 839 24.78 -6.1 21.1 71 -10.5 13.1
09:05 1010 29.83 839 24.78 -6.1 21.1 69 -10.8 12.6
09:10 1010 29.83 839 24.78 -5.9 21.3 67 -11.1 11.9
09:15 1010 29.83 839 24.78 -5.8 21.6 67 -11 12.2
09:20 1010 29.83 839 24.78 -5.6 21.9 69 -10.5 13.1
09:25 1010 29.83 839 24.78 -5.4 22.3 68 -10.5 13.2
09:30 1010 29.83 839 24.78 -5.2 22.7 61 -11.5 11.3
09:35 1010 29.83 839 24.78 -4.9 23.2 59 -11.7 11
09:40 1010 29.83 839 24.78 -4.5 24 57 -11.7 10.9
09:45 1010 29.83 839 24.78 -4.2 24.5 61 -10.7 12.8
09:50 1010 29.83 839 24.78 -4 24.8 58 -11.2 11.9
09:55 1010 29.83 839 24.78 -4.1 24.6 61 -10.5 13.2
10:00 1010 29.83 839 24.78 -4.1 24.6 64 -9.9 14.1
10:05 1010 29.83 839 24.78 -4.2 24.4 66 -9.7 14.6
10:10 1010 29.83 839 24.78 -4.1 24.7 63 -10 14
10:15 1010 29.83 839 24.78 -3.9 25 66 -9.3 15.2
10:20 1010 29.83 839 24.78 -3.9 25 67 -9.2 15.4
10:25 1010 29.83 839 24.78 -3.7 25.3 63 -9.7 14.6
10:30 1010 29.83 839 24.78 -3.5 25.7 62 -9.8 14.3
10:35 1010 29.83 839 24.78 -3.6 25.5 60 -10.2 13.6
10:40 1010 29.83 839 24.78 -3.5 25.7 59 -10.4 13.3
10:45 1010 29.83 839 24.78 -3.3 26.1 59 -10.3 13.5
10:50 1010 29.83 839 24.78 -3.1 26.5 56 -10.6 12.9
10:55 1010 29.83 839 24.78 -2.8 26.9 56 -10.4 13.4
11:00 1010 29.83 839 24.78 -2.6 27.3 55 -10.4 13.3
11:05 1010 29.83 839 24.78 -2.6 27.4 55 -10.5 13.1
11:10 1010 29.83 839 24.78 -2.3 27.8 53 -10.6 12.8
11:15 1010 29.83 839 24.78 -2.2 28.1 52 -10.8 12.5
11:20 1010 29.83 839 24.78 -2 28.4 51 -10.7 12.7
11:25 1010 29.83 839 24.78 -1.8 28.7 52 -10.4 13.3
11:30 1010 29.83 839 24.78 -2 28.4 52 -10.5 13.1
11:35 1010 29.83 839 24.78 -2.2 28.1 52 -10.7 12.8
11:40 1010 29.83 839 24.78 -2 28.3 53 -10.3 13.4
11:45 1010 29.83 839 24.78 -1.9 28.7 52 -10.4 13.3
11:50 1010 29.83 839 24.78 -1.7 28.9 50 -10.8 12.6
11:55 1010 29.83 839 24.78 -1.6 29.2 51 -10.5 13
12:00 1010 29.83 839 24.78 -1.3 29.7 50 -10.5 13.1
12:05 1010 29.83 839 24.78 -1.1 30.1 48 -10.8 12.5
12:10 1010 29.83 839 24.78 -0.9 30.4 49 -10.2 13.6
12:15 1010 29.83 839 24.78 -0.7 30.7 48 -10.3 13.5
12:20 1010 29.83 839 24.78 -0.6 30.9 49 -10.1 13.8
12:25 1009 29.8 839 24.78 -0.5 31 49 -10 14
12:30 1009 29.8 838 24.75 -0.5 31 49 -9.9 14.2
12:35 1009 29.8 838 24.75 -0.5 31.1 50 -9.8 14.3
12:40 1009 29.8 839 24.78 -0.9 30.3 52 -9.7 14.5
12:45 1009 29.8 839 24.78 -0.9 30.4 52 -9.5 14.9
12:50 1009 29.8 838 24.75 -0.9 30.3 53 -9.3 15.2
12:55 1009 29.8 838 24.75 -0.7 30.7 51 -9.6 14.7
13:00 1009 29.8 838 24.75 -0.1 31.8 50 -9.4 15.1
13:05 1009 29.8 838 24.75 0.1 32.2 50 -9.2 15.5
13:10 1009 29.8 838 24.75 0.3 32.5 50 -8.9 16.1
13:15 1009 29.8 838 24.75 0.7 33.2 48 -9.1 15.6
13:20 1009 29.8 838 24.75 0.6 33.1 52 -8.2 17.3
13:25 1009 29.8 838 24.75 1.9 35.5 47 -8.1 17.4
13:30 1009 29.8 838 24.75 2.6 36.7 47 -7.7 18.2
13:35 1009 29.8 838 24.75 2.8 37.1 47 -7.3 18.9
13:40 1009 29.8 838 24.75 2.8 37.1 48 -7.2 19
13:45 1009 29.8 838 24.75 2.9 37.2 47 -7.3 18.8
13:50 1009 29.8 838 24.75 2.8 37.1 47 -7.4 18.7
13:55 1009 29.8 838 24.75 2.8 37 45 -8.1 17.4
14:00 1009 29.8 838 24.75 2.9 37.2 45 -8 17.6
14:05 1009 29.8 838 24.75 3.2 37.7 42 -8.7 16.4
14:10 1008 29.77 838 24.75 3.4 38.1 41 -8.6 16.5
14:15 1008 29.77 838 24.75 4.1 39.4 38 -9.1 15.6
14:20 1008 29.77 838 24.75 5.1 41.1 37 -8.5 16.6
14:25 1009 29.8 838 24.75 5.5 41.8 37 -8.2 17.2
14:30 1008 29.77 838 24.75 5.3 41.6 37 -8.2 17.3
14:35 1009 29.8 838 24.75 4.5 40.2 40 -8.1 17.5
14:40 1009 29.8 838 24.75 4.2 39.5 40 -8.4 17
14:45 1009 29.8 838 24.75 4.6 40.4 37 -9 15.9
14:50 1009 29.8 838 24.75 5.5 42 35 -8.7 16.3
14:55 1009 29.8 838 24.75 5.5 41.9 39 -7.3 18.9
15:00 1009 29.8 838 24.75 4.9 40.8 41 -7.2 19
15:05 1008 29.77 838 24.75 4.8 40.6 42 -7.1 19.3
15:10 1008 29.77 838 24.75 4.5 40.1 43 -7.1 19.2
15:15 1008 29.77 838 24.75 4.2 39.6 43 -7.1 19.1
15:20 1008 29.77 838 24.75 3.9 39.1 44 -7.2 19.1
15:25 1009 29.8 838 24.75 4.1 39.4 43 -7.2 19
15:30 1008 29.77 838 24.75 4.1 39.3 44 -7.3 18.9
15:35 1008 29.77 838 24.75 4 39.2 44 -7.2 19.1
15:40 1008 29.77 838 24.75 3.9 39.1 44 -7.1 19.2
15:45 1008 29.77 838 24.75 4 39.1 44 -7.1 19.3
15:50 1008 29.77 838 24.75 3.9 39 47 -6.5 20.3
15:55 1008 29.77 838 24.75 3.8 38.8 47 -6.5 20.3
16:00 1008 29.77 838 24.75 3.5 38.3 47 -6.7 19.9
16:05 1008 29.77 838 24.75 3.3 37.9 47 -6.8 19.7
16:10 1008 29.77 838 24.75 3.2 37.7 47 -7.1 19.2
16:15 1008 29.77 838 24.75 3 37.5 48 -6.9 19.6
16:20 1008 29.77 838 24.75 2.9 37.2 49 -6.8 19.7
16:25 1008 29.77 838 24.75 2.8 37.1 49 -7 19.5
16:30 1008 29.77 837 24.72 2.8 37 48 -7.2 19.1
16:35 1008 29.77 837 24.72 2.7 36.8 49 -6.9 19.5
16:40 1008 29.77 837 24.72 2.6 36.6 50 -6.7 19.9
16:45 1008 29.77 838 24.75 2.4 36.4 51 -6.7 19.9
16:50 1008 29.77 837 24.72 2.3 36.2 50 -6.9 19.5
16:55 1008 29.77 837 24.72 2.4 36.3 52 -6.6 20.1
17:00 1008 29.77 838 24.75 2.2 35.9 52 -6.6 20.1
17:05 1008 29.77 838 24.75 2 35.7 53 -6.7 20
17:10 1009 29.8 838 24.75 2.1 35.8 52 -6.8 19.7
17:15 1009 29.8 838 24.75 2.1 35.7 52 -6.7 20
17:20 1009 29.8 838 24.75 2 35.7 53 -6.6 20.1
17:25 1008 29.77 838 24.75 2 35.6 54 -6.4 20.4
17:30 1008 29.77 838 24.75 1.9 35.4 54 -6.4 20.4
17:35 1008 29.77 838 24.75 1.7 35.1 55 -6.5 20.4
17:40 1008 29.77 837 24.72 1.5 34.8 56 -6.3 20.6
17:45 1008 29.77 837 24.72 1.6 34.9 54 -6.8 19.7
17:50 1008 29.77 837 24.72 1.7 35 53 -6.9 19.6
17:55 1008 29.77 837 24.72 1.5 34.7 55 -6.6 20.1
18:00 1008 29.77 837 24.72 1.5 34.7 54 -6.7 19.9
18:05 1008 29.77 837 24.72 1.5 34.7 55 -6.6 20.1
18:10 1008 29.77 837 24.72 1.6 34.8 54 -6.8 19.7
18:15 1008 29.77 837 24.72 1.6 34.8 54 -6.8 19.7
18:20 1008 29.77 837 24.72 1.5 34.8 55 -6.6 20.1
18:25 1008 29.77 837 24.72 1.6 34.9 54 -6.7 20
18:30 1008 29.77 837 24.72 1.7 35 55 -6.5 20.3
18:35 1008 29.77 837 24.72 1.8 35.3 53 -6.8 19.7
18:40 1008 29.77 837 24.72 1.9 35.4 53 -6.7 19.9
18:45 1008 29.77 837 24.72 1.9 35.4 53 -6.6 20.2
18:50 1008 29.77 837 24.72 1.9 35.4 54 -6.4 20.4
18:55 1008 29.77 837 24.72 1.9 35.3 54 -6.4 20.5
19:00 1008 29.77 837 24.72 1.8 35.2 55 -6.3 20.7
19:05 1008 29.77 837 24.72 1.8 35.2 54 -6.6 20.1
19:10 1008 29.77 837 24.72 1.9 35.4 54 -6.4 20.4
19:15 1008 29.77 837 24.72 1.9 35.5 54 -6.3 20.6
19:20 1008 29.77 837 24.72 1.9 35.5 55 -6.2 20.9
19:25 1008 29.77 837 24.72 1.6 35 59 -5.4 22.2
19:30 1008 29.77 837 24.72 1.1 33.9 61 -5.6 21.9
19:35 1008 29.77 837 24.72 0.9 33.6 62 -5.7 21.7
19:40 1008 29.77 837 24.72 0.8 33.4 62 -5.7 21.7
19:45 1008 29.77 837 24.72 0.7 33.3 62 -5.8 21.6
19:50 1008 29.77 837 24.72 0.7 33.3 62 -5.8 21.5
19:55 1008 29.77 837 24.72 0.7 33.3 62 -5.7 21.7
20:00 1008 29.77 837 24.72 0.8 33.4 61 -5.8 21.5
20:05 1008 29.77 837 24.72 0.7 33.2 62 -5.7 21.7
20:10 1008 29.77 837 24.72 0.4 32.8 63 -5.7 21.7
20:15 1008 29.77 837 24.72 0.3 32.5 64 -5.6 21.8
20:20 1008 29.77 837 24.72 0.1 32.2 64 -5.8 21.5
20:25 1008 29.77 837 24.72 0.1 32.1 65 -5.8 21.6
20:30 1008 29.77 837 24.72 0.2 32.4 63 -6.1 21
20:35 1008 29.77 837 24.72 0.3 32.5 63 -6 21.2
20:40 1008 29.77 837 24.72 0.3 32.5 62 -6.2 20.8
20:45 1008 29.77 837 24.72 0.5 33 61 -6.1 21
20:50 1008 29.77 837 24.72 0.5 33 62 -6 21.2
20:55 1008 29.77 837 24.72 0.4 32.8 60 -6.5 20.2
21:00 1008 29.77 838 24.75 0.5 32.9 61 -6.2 20.9
21:05 1008 29.77 837 24.72 0.5 32.9 61 -6.1 21
21:10 1008 29.77 837 24.72 0.5 32.8 61 -6.1 21
21:15 1008 29.77 837 24.72 0.5 32.9 61 -6.2 20.8
21:20 1008 29.77 838 24.75 0.5 32.9 62 -6.1 21.1
21:25 1008 29.77 838 24.75 0.5 32.8 62 -6.1 21.1
21:30 1008 29.77 838 24.75 0.4 32.7 62 -6 21.2
21:35 1008 29.77 838 24.75 0.3 32.5 64 -5.9 21.4
21:40 1008 29.77 838 24.75 0.2 32.3 61 -6.4 20.5
21:45 1008 29.77 838 24.75 0.4 32.7 59 -6.7 19.9
21:50 1008 29.77 838 24.75 0.7 33.3 57 -6.9 19.6
21:55 1008 29.77 838 24.75 1 33.7 57 -6.6 20.1
22:00 1009 29.8 838 24.75 0.9 33.7 57 -6.6 20.2
22:05 1009 29.8 838 24.75 0.8 33.5 58 -6.5 20.2
22:10 1009 29.8 838 24.75 0.6 33.2 58 -6.7 20
22:15 1009 29.8 838 24.75 0.6 33 59 -6.6 20.1
22:20 1009 29.8 838 24.75 0.6 33.1 58 -6.7 20
22:25 1009 29.8 838 24.75 0.6 33.2 60 -6.3 20.7
22:30 1009 29.8 838 24.75 0 32.1 64 -6.1 21.1
22:35 1009 29.8 838 24.75 -0.3 31.4 64 -6.3 20.7
22:40 1009 29.8 838 24.75 -0.4 31.3 65 -6.3 20.7
22:45 1009 29.8 838 24.75 -0.4 31.3 63 -6.7 19.9
22:50 1009 29.8 838 24.75 -0.2 31.7 61 -6.7 19.9
22:55 1009 29.8 838 24.75 -0.1 31.9 61 -6.7 19.9
23:00 1009 29.8 838 24.75 -0.2 31.7 61 -6.9 19.5
23:05 1009 29.8 838 24.75 -0.1 31.9 60 -7 19.4
23:10 1009 29.8 838 24.75 0 32 59 -7.1 19.2
23:15 1009 29.8 838 24.75 0.1 32.2 59 -7 19.5
23:20 1009 29.8 838 24.75 0.2 32.4 57 -7.4 18.6
23:25 1009 29.8 838 24.75 0.3 32.5 57 -7.4 18.8
23:30 1009 29.8 838 24.75 0.3 32.6 56 -7.4 18.6
23:35 1009 29.8 838 24.75 0.4 32.7 56 -7.4 18.6
23:40 1009 29.8 838 24.75 0.2 32.4 58 -7.2 19.1
23:45 1009 29.8 838 24.75 0.1 32.1 58 -7.2 19.1
23:50 1009 29.8 838 24.75 -0 31.9 58 -7.3 18.9
23:55 1009 29.8 838 24.75 0 32 57 -7.5 18.6
24:00 1009 29.8 838 24.75 0.2 32.4 56 -7.6 18.3